Time;durP1;ratioP1;P1;durP2;ratioP2;P2;SDS_P1;SDS_P2;PMS_P1;PMS_P2;Temp;Humidity;BMP_temperature;BMP_pressure;BME280_temperature;BME280_humidity;BME280_pressure;Samples;Min_cycle;Max_cycle;Signal;HPM_P1;HPM_P2
2022/12/02 00:01:21;;;;;;;218.90;54.50;;;1.90;99.90;;;;;;5005361;28;20048;-70
2022/12/02 00:03:48;;;;;;;229.57;56.85;;;1.90;99.90;;;;;;5005579;28;20483;-70
2022/12/02 00:06:29;;;;;;;231.20;57.20;;;1.90;99.90;;;;;;4995260;28;20043;-70
2022/12/02 00:09:02;;;;;;;213.00;55.38;;;1.80;99.90;;;;;;5009268;28;20038;-70
2022/12/02 00:11:30;;;;;;;206.95;53.70;;;1.70;99.90;;;;;;5004583;28;20060;-70
2022/12/02 00:14:01;;;;;;;219.52;54.95;;;1.70;99.90;;;;;;5005267;28;20426;-70
2022/12/02 00:16:28;;;;;;;217.15;55.10;;;1.80;99.90;;;;;;4982892;28;20149;-70
2022/12/02 00:18:56;;;;;;;215.90;55.72;;;1.70;99.90;;;;;;5006757;28;20047;-70
2022/12/02 00:21:22;;;;;;;230.63;58.22;;;1.80;99.90;;;;;;4990186;28;20050;-70
2022/12/02 00:23:49;;;;;;;212.98;55.30;;;1.90;99.90;;;;;;5012812;28;20435;-70
2022/12/02 00:26:16;;;;;;;209.77;53.83;;;1.80;99.90;;;;;;5006996;28;20057;-70
2022/12/02 00:28:42;;;;;;;227.95;55.25;;;1.70;99.90;;;;;;5008704;28;20049;-71
2022/12/02 00:31:09;;;;;;;205.00;57.65;;;1.70;99.90;;;;;;5000649;28;20037;-70
2022/12/02 00:33:36;;;;;;;222.15;53.50;;;1.70;99.90;;;;;;4993580;28;20413;-70
2022/12/02 00:36:03;;;;;;;230.27;56.75;;;1.70;99.90;;;;;;5004236;28;20535;-69
2022/12/02 00:38:29;;;;;;;230.80;54.17;;;1.70;99.90;;;;;;5010725;28;20355;-71
2022/12/02 00:40:57;;;;;;;224.98;58.55;;;1.60;99.90;;;;;;4996188;28;20049;-70
2022/12/02 00:48:55;;;;;;;212.32;50.25;;;1.60;99.90;;;;;;5005045;28;19925;-70
2022/12/02 00:51:22;;;;;;;207.43;51.78;;;1.70;99.90;;;;;;5006815;28;20546;-70
2022/12/02 00:53:48;;;;;;;227.52;58.35;;;1.70;99.90;;;;;;4989542;28;21476;-70
2022/12/02 00:56:15;;;;;;;214.77;53.53;;;1.80;99.90;;;;;;5003922;28;20103;-71
2022/12/02 00:58:42;;;;;;;217.50;55.30;;;1.70;99.90;;;;;;5004932;28;20040;-69
2022/12/02 01:01:09;;;;;;;220.38;55.58;;;1.70;99.90;;;;;;5000693;28;20049;-70
2022/12/02 01:03:36;;;;;;;220.90;55.95;;;1.70;99.90;;;;;;4999764;28;20234;-69
2022/12/02 01:06:10;;;;;;;196.23;51.85;;;1.80;99.90;;;;;;5008157;28;20296;-70
2022/12/02 01:08:36;;;;;;;202.57;50.92;;;1.80;99.90;;;;;;4990733;28;20149;-71
2022/12/02 01:11:03;;;;;;;203.90;53.13;;;1.70;99.90;;;;;;5006654;28;20045;-70
2022/12/02 01:13:30;;;;;;;200.20;51.38;;;1.60;99.90;;;;;;5012628;28;20072;-69
2022/12/02 01:15:57;;;;;;;184.50;46.25;;;1.60;99.90;;;;;;4995457;28;20045;-70
2022/12/02 01:18:23;;;;;;;166.40;45.42;;;1.50;99.90;;;;;;5003363;28;20271;-70
2022/12/02 01:20:50;;;;;;;168.20;43.70;;;1.50;99.90;;;;;;5007575;28;20041;-69
2022/12/02 01:23:17;;;;;;;150.52;43.20;;;1.50;99.90;;;;;;5001789;28;20042;-70
2022/12/02 01:25:44;;;;;;;169.82;46.30;;;1.50;99.90;;;;;;5006599;28;20443;-71
2022/12/02 01:28:11;;;;;;;151.73;44.20;;;1.60;99.90;;;;;;4986461;28;20292;-70
2022/12/02 01:30:38;;;;;;;159.27;44.25;;;1.60;99.90;;;;;;4998562;28;20353;-68
2022/12/02 01:33:04;;;;;;;143.50;44.97;;;1.60;99.90;;;;;;4989745;28;20104;-69
2022/12/02 01:35:31;;;;;;;142.48;42.67;;;1.60;99.90;;;;;;5009676;28;20045;-69
2022/12/02 01:37:57;;;;;;;137.15;44.92;;;1.50;99.90;;;;;;5000953;28;20045;-69
2022/12/02 01:40:25;;;;;;;157.45;45.05;;;1.60;99.90;;;;;;4981388;28;20045;-69
2022/12/02 01:42:52;;;;;;;154.30;42.30;;;1.60;99.90;;;;;;5003010;28;20124;-69
2022/12/02 01:45:19;;;;;;;162.75;47.17;;;1.50;99.90;;;;;;4999275;28;20041;-68
2022/12/02 01:47:46;;;;;;;167.73;49.30;;;1.50;99.90;;;;;;4976326;28;20034;-69
2022/12/02 01:50:14;;;;;;;162.35;48.10;;;1.60;99.90;;;;;;5009625;28;20046;-70
2022/12/02 01:52:42;;;;;;;131.05;37.70;;;1.50;99.90;;;;;;5000952;28;20062;-70
2022/12/02 01:55:14;;;;;;;139.93;45.35;;;1.50;99.90;;;;;;5007809;28;20069;-70
2022/12/02 01:57:41;;;;;;;146.88;44.80;;;1.50;99.90;;;;;;5003630;28;20072;-70
2022/12/02 02:00:10;;;;;;;133.77;41.53;;;1.60;99.90;;;;;;4984281;28;20044;-70
2022/12/02 02:02:40;;;;;;;143.35;42.88;;;1.50;99.90;;;;;;5005070;28;20443;-70
2022/12/02 02:05:12;;;;;;;155.75;46.40;;;1.40;99.90;;;;;;4997308;28;20488;-69
2022/12/02 02:07:40;;;;;;;147.25;47.72;;;1.50;99.90;;;;;;4985843;28;20414;-70
2022/12/02 02:10:08;;;;;;;142.50;45.53;;;1.50;99.90;;;;;;5006130;28;20049;-69
2022/12/02 02:12:35;;;;;;;150.85;45.08;;;1.50;99.90;;;;;;4997440;28;20045;-68
2022/12/02 02:15:04;;;;;;;151.85;46.75;;;1.40;99.90;;;;;;4991174;28;20059;-69
2022/12/02 02:17:31;;;;;;;143.43;45.15;;;1.50;99.90;;;;;;4994628;28;20342;-69
2022/12/02 02:19:58;;;;;;;145.00;43.70;;;1.50;99.90;;;;;;5016387;28;20045;-68
2022/12/02 02:23:04;;;;;;;139.93;44.60;;;1.50;99.90;;;;;;4974536;28;20074;-69
2022/12/02 02:25:37;;;;;;;126.60;43.03;;;1.50;99.90;;;;;;4993592;28;20042;-69
2022/12/02 02:28:06;;;;;;;130.93;43.10;;;1.40;99.90;;;;;;4990379;28;20053;-69
2022/12/02 02:30:34;;;;;;;143.30;43.78;;;1.40;99.90;;;;;;4987399;28;20047;-70
2022/12/02 02:33:04;;;;;;;137.95;43.83;;;1.40;99.90;;;;;;5001785;28;20041;-68
2022/12/02 02:35:33;;;;;;;131.68;39.40;;;1.40;99.90;;;;;;5004100;28;20059;-68
2022/12/02 02:38:00;;;;;;;125.85;43.63;;;1.30;99.90;;;;;;4988594;28;20103;-69
2022/12/02 02:40:27;;;;;;;102.85;35.75;;;1.30;99.90;;;;;;4983585;28;20694;-69
2022/12/02 02:42:58;;;;;;;94.22;33.58;;;1.30;99.90;;;;;;4978620;28;20123;-69
2022/12/02 02:45:28;;;;;;;119.47;43.83;;;1.20;99.90;;;;;;4977661;28;20173;-69
2022/12/02 02:47:58;;;;;;;117.40;39.45;;;1.20;99.90;;;;;;4991734;28;20064;-69
2022/12/02 02:50:26;;;;;;;112.35;39.38;;;1.10;99.90;;;;;;5002881;28;20045;-67
2022/12/02 02:52:53;;;;;;;122.68;41.70;;;1.20;99.90;;;;;;4973243;28;20671;-71
2022/12/02 02:55:24;;;;;;;127.38;40.50;;;1.30;99.90;;;;;;5009492;28;20469;-68
2022/12/02 02:57:51;;;;;;;105.75;35.38;;;1.20;99.90;;;;;;4982299;28;20766;-70
2022/12/02 03:00:20;;;;;;;131.95;40.83;;;1.20;99.90;;;;;;4996089;28;20069;-68
2022/12/02 03:02:53;;;;;;;116.50;38.63;;;1.20;99.90;;;;;;5000669;23;20112;-70
2022/12/02 03:05:21;;;;;;;125.45;41.17;;;1.20;99.90;;;;;;4977814;28;20496;-71
2022/12/02 03:07:49;;;;;;;116.65;39.40;;;1.20;99.90;;;;;;4965595;28;20631;-71
2022/12/02 03:10:16;;;;;;;127.40;41.83;;;1.30;99.90;;;;;;4989653;28;20089;-71
2022/12/02 03:12:45;;;;;;;134.70;41.78;;;1.20;99.90;;;;;;4980740;28;20264;-71
2022/12/02 03:15:13;;;;;;;124.28;41.38;;;1.20;99.90;;;;;;4971073;28;20076;-71
2022/12/02 03:17:39;;;;;;;132.60;42.55;;;1.30;99.90;;;;;;4956757;28;20053;-69
2022/12/02 03:20:07;;;;;;;133.02;42.28;;;1.30;99.90;;;;;;4965868;28;20039;-68
2022/12/02 03:22:33;;;;;;;121.60;42.50;;;1.30;99.90;;;;;;4965915;28;20464;-69
2022/12/02 03:25:01;;;;;;;123.22;43.10;;;1.30;99.90;;;;;;4956151;28;20031;-69
2022/12/02 03:27:28;;;;;;;128.93;42.45;;;1.20;99.90;;;;;;4952825;28;20237;-69
2022/12/02 03:29:55;;;;;;;134.70;43.92;;;1.20;99.90;;;;;;4962182;28;20088;-69
2022/12/02 03:32:22;;;;;;;129.05;42.75;;;1.20;99.90;;;;;;4972817;28;20115;-69
2022/12/02 03:34:48;;;;;;;132.52;43.70;;;1.20;99.90;;;;;;4974633;28;20049;-70
2022/12/02 03:37:16;;;;;;;123.05;40.38;;;1.30;99.90;;;;;;4960856;28;20572;-69
2022/12/02 03:39:42;;;;;;;128.50;44.63;;;1.30;99.90;;;;;;4976691;28;20146;-70
2022/12/02 03:42:09;;;;;;;122.68;41.33;;;1.30;99.90;;;;;;4976550;28;20039;-69
2022/12/02 03:44:36;;;;;;;131.48;41.22;;;1.30;99.90;;;;;;4967885;28;20038;-69
2022/12/02 03:47:03;;;;;;;133.57;44.15;;;1.10;99.90;;;;;;4977644;28;20045;-69
2022/12/02 03:49:32;;;;;;;126.68;42.50;;;1.10;99.90;;;;;;4976403;28;20046;-69
2022/12/02 03:51:59;;;;;;;127.32;43.45;;;1.20;99.90;;;;;;4978102;28;20547;-70
2022/12/02 03:54:26;;;;;;;126.82;43.15;;;1.20;99.90;;;;;;4977658;28;20055;-69
2022/12/02 03:56:53;;;;;;;125.43;41.92;;;1.20;99.90;;;;;;4960983;28;20531;-69
2022/12/02 03:59:26;;;;;;;125.15;40.50;;;1.20;99.90;;;;;;4972013;28;20073;-69
2022/12/02 04:01:54;;;;;;;118.82;39.17;;;1.20;99.90;;;;;;4960329;28;20407;-69
2022/12/02 04:04:21;;;;;;;130.13;42.90;;;1.10;99.90;;;;;;4980070;28;20055;-70
2022/12/02 04:06:48;;;;;;;120.60;38.88;;;1.10;99.90;;;;;;4970429;28;20046;-70
2022/12/02 04:09:14;;;;;;;109.40;37.05;;;1.00;99.90;;;;;;4979877;28;20038;-69
2022/12/02 04:11:41;;;;;;;110.72;39.78;;;1.00;99.90;;;;;;4961806;28;20066;-70
2022/12/02 04:14:08;;;;;;;126.20;41.17;;;1.00;99.90;;;;;;4961535;28;20111;-70
2022/12/02 04:16:34;;;;;;;118.97;41.80;;;1.00;99.90;;;;;;4975261;28;20042;-69
2022/12/02 04:19:01;;;;;;;115.25;37.50;;;1.10;99.90;;;;;;4982775;28;20323;-69
2022/12/02 04:21:27;;;;;;;116.88;40.53;;;1.10;99.90;;;;;;4972857;28;20042;-70
2022/12/02 04:23:54;;;;;;;115.47;40.38;;;1.10;99.90;;;;;;4975586;28;20512;-69
2022/12/02 04:26:21;;;;;;;109.53;36.53;;;1.10;99.90;;;;;;4975971;28;20081;-69
2022/12/02 04:28:48;;;;;;;107.55;39.85;;;1.00;99.90;;;;;;4984301;28;20096;-70
2022/12/02 04:31:14;;;;;;;116.00;39.17;;;1.00;99.90;;;;;;4978416;28;20281;-70
2022/12/02 04:33:41;;;;;;;114.35;41.55;;;1.10;99.90;;;;;;4960839;28;20050;-69
2022/12/02 04:36:08;;;;;;;99.57;35.60;;;1.00;99.90;;;;;;4960136;28;20058;-69
2022/12/02 04:38:35;;;;;;;111.85;38.20;;;1.00;99.90;;;;;;4968669;28;20049;-70
2022/12/02 04:41:01;;;;;;;99.80;35.53;;;1.10;99.90;;;;;;4969590;28;20046;-69
2022/12/02 04:43:28;;;;;;;110.25;38.85;;;1.10;99.90;;;;;;4971798;28;20056;-70
2022/12/02 04:45:55;;;;;;;108.05;36.67;;;1.10;99.90;;;;;;4980134;28;20122;-70
2022/12/02 04:48:22;;;;;;;108.38;36.88;;;1.10;99.90;;;;;;4972765;28;20478;-69
2022/12/02 04:50:48;;;;;;;104.13;36.95;;;1.10;99.90;;;;;;4969777;28;20043;-69
2022/12/02 04:53:15;;;;;;;86.88;31.10;;;1.00;99.90;;;;;;4967144;28;20336;-70
2022/12/02 04:55:45;;;;;;;88.70;34.42;;;1.00;99.90;;;;;;4971339;28;20050;-70
2022/12/02 04:58:12;;;;;;;98.28;32.88;;;0.90;99.90;;;;;;4974769;28;20093;-69
2022/12/02 05:00:39;;;;;;;94.18;37.38;;;0.90;99.90;;;;;;4958800;28;20042;-70
2022/12/02 05:03:06;;;;;;;91.50;33.78;;;0.90;99.90;;;;;;4972183;28;20205;-70
2022/12/02 05:05:33;;;;;;;93.85;34.30;;;1.00;99.90;;;;;;4974208;28;20215;-70
2022/12/02 05:08:00;;;;;;;90.72;36.85;;;0.90;99.90;;;;;;4976837;28;20519;-71
2022/12/02 05:10:26;;;;;;;96.22;35.67;;;1.00;99.90;;;;;;4977661;28;20352;-70
2022/12/02 05:12:53;;;;;;;86.57;33.92;;;1.00;99.90;;;;;;4973547;28;20042;-69
2022/12/02 05:15:20;;;;;;;89.47;34.13;;;1.00;99.90;;;;;;4962527;28;20512;-70
2022/12/02 05:17:46;;;;;;;81.65;30.63;;;1.00;99.90;;;;;;4977090;28;20050;-70
2022/12/02 05:20:13;;;;;;;86.07;32.78;;;1.00;99.90;;;;;;4960210;28;20508;-69
2022/12/02 05:22:40;;;;;;;74.82;31.92;;;1.00;99.90;;;;;;4969757;28;20303;-69
2022/12/02 05:25:07;;;;;;;77.78;30.90;;;1.00;99.90;;;;;;4971170;28;20038;-72
2022/12/02 05:27:33;;;;;;;84.25;34.08;;;1.00;99.90;;;;;;4967083;28;20034;-70
2022/12/02 05:30:03;;;;;;;74.43;32.00;;;1.00;99.90;;;;;;4969740;28;20101;-69
2022/12/02 05:32:30;;;;;;;78.68;31.52;;;1.10;99.90;;;;;;4955606;28;20054;-69
2022/12/02 05:34:57;;;;;;;77.55;32.03;;;1.10;99.90;;;;;;4961508;28;20050;-70
2022/12/02 05:37:24;;;;;;;80.90;32.70;;;1.00;99.90;;;;;;4971798;28;20412;-70
2022/12/02 05:39:51;;;;;;;82.43;33.75;;;1.10;99.90;;;;;;4953955;28;20050;-69
2022/12/02 05:42:18;;;;;;;84.47;35.30;;;1.00;99.90;;;;;;4965067;28;20577;-69
2022/12/02 05:44:45;;;;;;;85.78;36.08;;;1.00;99.90;;;;;;4967332;28;20382;-72
2022/12/02 05:47:14;;;;;;;62.33;26.45;;;1.00;99.90;;;;;;4972210;28;20038;-70
2022/12/02 05:49:42;;;;;;;68.13;29.73;;;1.00;99.90;;;;;;4967795;28;20042;-70
2022/12/02 05:52:23;;;;;;;75.15;31.73;;;1.00;99.90;;;;;;4971520;28;20517;-71
2022/12/02 05:55:00;;;;;;;83.03;34.05;;;1.00;99.90;;;;;;4966727;28;20472;-71
2022/12/02 05:57:30;;;;;;;80.68;35.17;;;1.00;99.90;;;;;;4971254;28;20056;-71
2022/12/02 06:00:10;;;;;;;74.30;32.70;;;1.00;99.90;;;;;;4977641;28;20050;-71
2022/12/02 06:02:59;;;;;;;86.00;36.20;;;1.00;99.90;;;;;;4963187;28;20297;-72
2022/12/02 06:05:36;;;;;;;78.15;34.50;;;1.10;99.90;;;;;;4955875;28;20470;-70
2022/12/02 06:08:18;;;;;;;88.65;39.78;;;1.20;99.90;;;;;;4970603;28;20089;-72
2022/12/02 06:10:51;;;;;;;81.10;35.15;;;1.10;99.90;;;;;;4968426;28;20042;-70
2022/12/02 06:13:21;;;;;;;80.57;35.22;;;1.10;99.90;;;;;;4966553;28;20050;-69
2022/12/02 06:15:49;;;;;;;87.95;35.15;;;1.00;99.90;;;;;;4957426;28;20525;-70
2022/12/02 06:18:19;;;;;;;88.22;36.80;;;1.00;99.90;;;;;;4955538;28;20054;-70
2022/12/02 06:20:55;;;;;;;90.18;36.35;;;0.90;99.90;;;;;;4967476;28;20030;-69
2022/12/02 06:23:25;;;;;;;90.63;35.88;;;1.00;99.90;;;;;;4959176;28;20045;-69
2022/12/02 06:25:53;;;;;;;100.45;39.05;;;1.10;99.90;;;;;;4972415;28;20277;-70
2022/12/02 06:28:38;;;;;;;82.00;36.30;;;1.00;99.90;;;;;;4971613;28;20046;-70
2022/12/02 06:31:22;;;;;;;92.32;37.05;;;1.00;99.90;;;;;;4956678;28;20062;-70
2022/12/02 06:33:51;;;;;;;81.38;38.50;;;1.10;99.90;;;;;;4953035;28;20050;-69
2022/12/02 06:36:21;;;;;;;91.05;38.13;;;1.10;99.90;;;;;;4973060;28;20061;-70
2022/12/02 06:39:01;;;;;;;94.93;40.80;;;1.10;99.90;;;;;;4968329;28;20034;-69
2022/12/02 06:41:35;;;;;;;87.28;38.72;;;1.10;99.90;;;;;;4975833;28;20493;-70
2022/12/02 06:47:36;;;;;;;99.18;38.78;;;1.10;99.90;;;;;;4977725;28;20045;-69
2022/12/02 06:50:06;;;;;;;95.97;38.37;;;1.00;99.90;;;;;;4968706;28;20500;-70
2022/12/02 06:52:41;;;;;;;98.40;38.92;;;1.00;99.90;;;;;;4947969;28;20292;-71
2022/12/02 06:55:31;;;;;;;92.70;37.20;;;1.00;99.90;;;;;;4954880;28;20050;-71
2022/12/02 06:58:25;;;;;;;98.10;40.20;;;1.10;99.90;;;;;;4958273;28;20047;-71
2022/12/02 07:00:52;;;;;;;97.15;37.92;;;1.00;99.90;;;;;;4967646;28;20543;-72
2022/12/02 07:03:32;;;;;;;92.10;41.70;;;1.00;99.90;;;;;;4954379;28;20254;-71
2022/12/02 07:06:15;;;;;;;97.35;41.40;;;1.00;99.90;;;;;;4971721;28;20069;-71
2022/12/02 07:08:42;;;;;;;80.18;35.40;;;1.00;99.90;;;;;;4964196;28;20285;-71
2022/12/02 07:11:48;;;;;;;100.40;42.78;;;1.00;99.90;;;;;;4966582;28;20476;-71
2022/12/02 07:14:46;;;;;;;96.40;42.05;;;0.90;99.90;;;;;;4967970;28;20521;-72
2022/12/02 07:17:19;;;;;;;74.70;36.58;;;0.90;99.90;;;;;;4970258;28;20306;-69
2022/12/02 07:19:55;;;;;;;83.72;40.13;;;0.80;99.90;;;;;;4952583;28;20034;-69
2022/12/02 07:22:28;;;;;;;95.53;43.97;;;0.80;99.90;;;;;;4972881;28;20316;-70
2022/12/02 07:25:00;;;;;;;96.82;40.75;;;0.90;99.90;;;;;;4966113;28;20041;-68
2022/12/02 07:27:30;;;;;;;94.30;39.05;;;0.80;99.90;;;;;;4969938;28;20540;-69
2022/12/02 07:29:58;;;;;;;90.55;39.42;;;0.80;99.90;;;;;;4973975;28;20130;-69
2022/12/02 07:32:25;;;;;;;91.38;40.78;;;0.90;99.90;;;;;;4969514;28;20308;-70
2022/12/02 07:34:52;;;;;;;98.80;42.38;;;0.80;99.90;;;;;;4949409;28;20054;-70
2022/12/02 07:37:20;;;;;;;105.15;48.05;;;0.80;99.90;;;;;;4954122;28;20089;-70
2022/12/02 07:39:46;;;;;;;92.80;44.33;;;0.90;99.90;;;;;;4945845;28;20116;-69
2022/12/02 07:42:13;;;;;;;103.30;46.17;;;0.90;99.90;;;;;;4959315;28;20042;-72
2022/12/02 07:44:40;;;;;;;89.20;43.90;;;0.90;99.90;;;;;;4972073;28;20101;-70
2022/12/02 07:47:07;;;;;;;91.97;45.72;;;0.90;99.90;;;;;;4967777;28;20043;-70
2022/12/02 07:49:33;;;;;;;97.10;46.50;;;0.80;99.90;;;;;;4955637;28;20098;-70
2022/12/02 07:52:00;;;;;;;103.00;51.70;;;0.80;99.90;;;;;;4969767;28;20520;-70
2022/12/02 07:54:26;;;;;;;90.55;45.60;;;0.70;99.90;;;;;;4953671;28;20412;-70
2022/12/02 07:56:53;;;;;;;85.07;41.17;;;0.70;99.90;;;;;;4975204;28;20049;-69
2022/12/02 07:59:20;;;;;;;89.45;44.67;;;0.70;99.90;;;;;;4985381;28;20047;-69
2022/12/02 08:01:46;;;;;;;99.05;49.20;;;0.70;99.90;;;;;;4995291;28;20102;-69
2022/12/02 08:04:13;;;;;;;96.82;43.50;;;0.80;99.90;;;;;;4970254;28;20054;-70
2022/12/02 08:06:40;;;;;;;87.43;46.05;;;0.70;99.90;;;;;;4967812;28;20057;-70
2022/12/02 08:09:08;;;;;;;88.15;48.90;;;0.70;99.90;;;;;;4971269;28;20046;-70
2022/12/02 08:11:35;;;;;;;94.07;48.10;;;0.80;99.90;;;;;;4954120;28;20038;-69
2022/12/02 08:14:01;;;;;;;91.38;46.28;;;0.70;99.90;;;;;;4966789;28;20043;-69
2022/12/02 08:16:28;;;;;;;93.38;39.72;;;0.80;99.90;;;;;;4977351;28;20544;-70
2022/12/02 08:18:55;;;;;;;90.85;46.17;;;0.80;99.90;;;;;;4960717;28;20049;-69
2022/12/02 08:21:22;;;;;;;88.70;48.67;;;0.80;99.90;;;;;;4961262;28;20050;-69
2022/12/02 08:23:49;;;;;;;81.55;44.20;;;0.80;99.90;;;;;;4970684;28;20945;-70
2022/12/02 08:26:15;;;;;;;97.45;48.67;;;0.90;99.90;;;;;;4979199;28;20129;-70
2022/12/02 08:28:42;;;;;;;90.10;44.38;;;0.90;99.90;;;;;;4965874;28;20111;-69
2022/12/02 08:31:09;;;;;;;82.63;43.45;;;0.80;99.90;;;;;;4963747;28;20041;-71
2022/12/02 08:33:35;;;;;;;83.88;44.90;;;0.70;99.90;;;;;;4971176;28;20154;-71
2022/12/02 08:36:03;;;;;;;85.57;44.95;;;0.70;99.90;;;;;;4974398;28;20035;-71
2022/12/02 08:38:29;;;;;;;80.32;44.42;;;0.80;99.90;;;;;;4964754;28;20363;-69
2022/12/02 08:40:56;;;;;;;99.90;53.22;;;0.80;99.90;;;;;;4970649;28;20050;-71
2022/12/02 08:43:23;;;;;;;93.22;48.70;;;0.80;99.90;;;;;;4973603;28;20223;-71
2022/12/02 08:45:50;;;;;;;88.32;49.03;;;0.80;99.90;;;;;;4970691;28;20042;-70
2022/12/02 08:48:17;;;;;;;93.47;47.50;;;0.80;99.90;;;;;;4974915;28;20154;-71
2022/12/02 08:50:44;;;;;;;94.28;46.70;;;0.90;99.90;;;;;;4976738;28;20042;-71
2022/12/02 08:53:11;;;;;;;85.47;44.13;;;0.90;99.90;;;;;;4973362;28;20050;-71
2022/12/02 08:55:38;;;;;;;92.10;48.70;;;0.90;99.90;;;;;;4967249;28;20081;-71
2022/12/02 08:58:04;;;;;;;87.28;47.70;;;0.80;99.90;;;;;;4972302;28;20042;-70
2022/12/02 09:00:31;;;;;;;93.05;48.92;;;0.90;99.90;;;;;;4972915;28;20091;-71
2022/12/02 09:03:05;;;;;;;69.53;39.95;;;0.90;99.90;;;;;;4997138;23;20505;-68
2022/12/02 09:05:32;;;;;;;95.47;50.42;;;0.90;99.90;;;;;;5003636;28;20046;-69
2022/12/02 09:07:59;;;;;;;106.13;51.03;;;0.80;99.90;;;;;;4990730;28;20045;-70
2022/12/02 09:10:27;;;;;;;92.40;47.35;;;0.90;99.90;;;;;;4999591;28;20069;-71
2022/12/02 09:12:53;;;;;;;95.28;47.80;;;0.90;99.90;;;;;;5010451;28;20048;-67
2022/12/02 09:15:21;;;;;;;99.57;51.58;;;0.90;99.90;;;;;;4994558;28;20080;-68
2022/12/02 09:17:48;;;;;;;84.60;46.47;;;0.80;99.90;;;;;;5001247;28;20108;-67
2022/12/02 09:20:16;;;;;;;99.15;49.63;;;0.80;99.90;;;;;;5013110;28;20057;-68
2022/12/02 09:22:44;;;;;;;82.80;45.70;;;0.70;99.90;;;;;;5010035;28;20041;-68
2022/12/02 09:25:13;;;;;;;87.60;48.28;;;0.80;99.90;;;;;;5007983;28;20103;-68
2022/12/02 09:27:39;;;;;;;98.88;51.08;;;0.80;99.90;;;;;;4982546;28;20039;-68
2022/12/02 09:30:08;;;;;;;86.50;48.33;;;0.70;99.90;;;;;;4992884;28;20046;-68
2022/12/02 09:32:34;;;;;;;91.90;49.33;;;0.80;99.90;;;;;;5003258;28;20536;-69
2022/12/02 09:35:01;;;;;;;90.00;49.38;;;0.80;99.90;;;;;;4991327;28;20280;-70
2022/12/02 09:37:28;;;;;;;92.82;50.40;;;0.90;99.90;;;;;;5000884;28;20049;-68
2022/12/02 09:39:55;;;;;;;101.10;51.75;;;1.00;99.90;;;;;;4983451;28;20157;-70
2022/12/02 09:42:22;;;;;;;88.15;50.03;;;1.10;99.90;;;;;;5005376;28;20042;-68
2022/12/02 09:44:49;;;;;;;92.38;48.38;;;1.10;99.90;;;;;;5007268;28;20033;-70
2022/12/02 09:47:17;;;;;;;97.82;49.88;;;1.00;99.90;;;;;;4983938;28;20049;-68
2022/12/02 09:49:46;;;;;;;80.90;45.55;;;1.00;99.90;;;;;;5011285;28;20046;-68
2022/12/02 09:52:23;;;;;;;86.72;43.00;;;0.90;99.90;;;;;;5005681;28;20046;-68
2022/12/02 09:54:57;;;;;;;65.00;39.55;;;0.80;99.90;;;;;;4991740;28;20060;-68
2022/12/02 09:57:30;;;;;;;91.82;46.40;;;0.80;99.90;;;;;;4997400;28;20053;-68
2022/12/02 10:00:08;;;;;;;88.22;45.95;;;0.80;99.90;;;;;;5002963;28;20049;-68
2022/12/02 10:02:44;;;;;;;77.45;41.63;;;0.90;99.90;;;;;;5009484;28;20432;-68
2022/12/02 10:05:20;;;;;;;76.93;41.63;;;0.80;99.90;;;;;;5004726;28;20041;-68
2022/12/02 10:07:48;;;;;;;66.53;37.28;;;0.80;99.90;;;;;;5003597;28;20046;-67
2022/12/02 10:10:19;;;;;;;83.60;42.90;;;0.70;99.90;;;;;;4979835;28;20136;-70
2022/12/02 10:12:45;;;;;;;86.60;43.78;;;0.70;99.90;;;;;;5003485;28;20053;-70
2022/12/02 10:15:15;;;;;;;90.43;46.65;;;0.70;99.90;;;;;;4995685;28;20444;-70
2022/12/02 10:17:44;;;;;;;87.57;47.42;;;0.90;99.90;;;;;;5011251;28;20053;-70
2022/12/02 10:20:18;;;;;;;84.50;44.72;;;1.00;99.90;;;;;;4985165;28;20045;-69
2022/12/02 10:23:06;;;;;;;85.07;45.20;;;0.90;99.90;;;;;;4982800;28;20064;-69
2022/12/02 10:25:33;;;;;;;76.75;44.20;;;0.90;99.90;;;;;;5002103;28;20072;-69
2022/12/02 10:28:00;;;;;;;92.35;46.90;;;0.90;99.90;;;;;;5006916;28;20041;-69
2022/12/02 10:30:28;;;;;;;77.85;43.97;;;1.10;99.90;;;;;;5001293;28;20038;-68
2022/12/02 10:33:00;;;;;;;84.97;45.75;;;1.10;99.90;;;;;;5006846;28;20048;-70
2022/12/02 10:35:28;;;;;;;89.68;44.35;;;1.00;99.90;;;;;;5006839;28;20080;-69
2022/12/02 10:37:55;;;;;;;78.50;42.95;;;1.10;99.90;;;;;;5000773;28;20052;-69
2022/12/02 10:40:24;;;;;;;82.07;44.80;;;1.00;99.90;;;;;;5005450;28;20038;-69
2022/12/02 10:43:09;;;;;;;83.07;44.63;;;1.00;99.90;;;;;;4992402;28;20056;-69
2022/12/02 10:45:36;;;;;;;79.60;45.00;;;1.20;99.90;;;;;;4983128;28;20034;-69
2022/12/02 10:48:16;;;;;;;79.22;42.72;;;1.10;99.90;;;;;;4998951;28;20128;-69
2022/12/02 10:50:43;;;;;;;76.63;43.13;;;1.10;99.90;;;;;;4979924;28;20500;-70
2022/12/02 10:53:16;;;;;;;68.35;41.88;;;1.20;99.90;;;;;;4986473;28;20049;-70
2022/12/02 10:55:45;;;;;;;66.78;39.28;;;1.30;99.90;;;;;;4994858;28;20488;-70
2022/12/02 10:58:18;;;;;;;66.63;38.90;;;1.10;99.90;;;;;;5000317;28;20056;-67
2022/12/02 11:00:46;;;;;;;70.80;41.15;;;1.00;99.90;;;;;;4986177;28;20037;-67
2022/12/02 11:03:12;;;;;;;70.05;40.83;;;1.00;99.90;;;;;;4999314;28;20053;-68
2022/12/02 11:05:39;;;;;;;72.30;41.95;;;1.10;99.90;;;;;;5003818;28;20132;-71
2022/12/02 11:08:20;;;;;;;79.22;42.28;;;1.00;99.90;;;;;;5007351;28;20168;-67
2022/12/02 11:10:50;;;;;;;72.13;42.00;;;1.10;99.90;;;;;;4990735;28;20042;-69
2022/12/02 11:13:16;;;;;;;72.15;42.00;;;1.10;99.90;;;;;;5000779;28;20057;-68
2022/12/02 11:15:50;;;;;;;68.07;37.00;;;1.20;99.90;;;;;;4984602;28;20045;-68
2022/12/02 11:18:29;;;;;;;72.50;41.03;;;1.20;99.90;;;;;;4988772;28;20057;-69
2022/12/02 11:21:24;;;;;;;77.55;42.70;;;1.20;99.90;;;;;;4980962;28;20048;-68
2022/12/02 11:24:11;;;;;;;;;;;1.20;99.90;;;;;;5004801;28;20287;-70
2022/12/02 11:27:00;;;;;;;67.72;39.95;;;1.20;99.90;;;;;;4996195;28;19929;-70
2022/12/02 11:29:41;;;;;;;68.97;40.95;;;1.30;99.90;;;;;;4986114;28;20046;-70
2022/12/02 11:32:20;;;;;;;64.38;39.22;;;1.20;99.90;;;;;;4996692;28;20054;-70
2022/12/02 11:34:52;;;;;;;63.65;40.78;;;1.30;99.90;;;;;;5009212;28;20045;-70
2022/12/02 11:37:41;;;;;;;55.35;36.40;;;1.20;99.90;;;;;;5002291;28;20548;-68
2022/12/02 11:40:10;;;;;;;55.13;34.90;;;1.20;99.90;;;;;;5012763;28;20080;-69
2022/12/02 11:42:38;;;;;;;65.75;38.05;;;1.10;99.90;;;;;;4998538;28;20049;-67
2022/12/02 11:45:17;;;;;;;56.08;37.08;;;1.00;99.90;;;;;;5010961;28;20262;-70
2022/12/02 11:47:53;;;;;;;61.15;37.90;;;1.10;99.90;;;;;;4997756;28;20052;-70
2022/12/02 11:50:37;;;;;;;55.00;35.47;;;1.20;99.90;;;;;;4995554;28;20273;-70
2022/12/02 11:53:23;;;;;;;57.17;36.45;;;1.30;99.90;;;;;;5008568;28;20053;-70
2022/12/02 11:55:52;;;;;;;63.90;36.97;;;1.20;99.90;;;;;;4992757;28;20127;-69
2022/12/02 11:58:28;;;;;;;53.20;36.10;;;1.20;99.90;;;;;;5004006;28;20137;-70
2022/12/02 12:01:11;;;;;;;54.33;35.25;;;1.10;99.90;;;;;;5006975;28;20693;-69
2022/12/02 12:03:43;;;;;;;54.85;37.20;;;1.10;99.90;;;;;;5013377;28;20050;-70
2022/12/02 12:06:14;;;;;;;48.90;33.08;;;1.00;99.90;;;;;;5007230;28;20515;-70
2022/12/02 12:08:50;;;;;;;49.90;32.58;;;1.00;99.90;;;;;;4989952;28;20049;-70
2022/12/02 12:11:25;;;;;;;44.60;32.13;;;0.90;99.90;;;;;;4996409;28;20041;-69
2022/12/02 12:14:17;;;;;;;50.10;32.97;;;0.90;99.90;;;;;;4994638;28;20589;-69
2022/12/02 12:16:46;;;;;;;54.83;34.60;;;0.90;99.90;;;;;;4991558;28;20534;-70
2022/12/02 12:19:15;;;;;;;50.63;35.92;;;0.90;99.90;;;;;;4991078;28;20045;-70
2022/12/02 12:21:46;;;;;;;46.38;30.10;;;1.00;99.90;;;;;;5004310;28;20145;-70
2022/12/02 12:24:16;;;;;;;49.33;34.42;;;1.10;99.90;;;;;;5000309;28;20107;-69
2022/12/02 12:26:45;;;;;;;58.75;36.38;;;1.00;99.90;;;;;;5013746;28;20491;-69
2022/12/02 12:29:11;;;;;;;55.90;37.70;;;1.00;99.90;;;;;;5009290;28;20065;-68
2022/12/02 12:31:38;;;;;;;49.63;34.92;;;1.10;99.90;;;;;;4992688;28;20042;-69
2022/12/02 12:34:06;;;;;;;45.80;35.95;;;1.10;99.90;;;;;;5002642;28;20064;-69
2022/12/02 12:36:34;;;;;;;59.85;41.47;;;1.20;99.90;;;;;;4981751;28;20042;-69
2022/12/02 12:39:02;;;;;;;61.35;42.47;;;1.20;99.90;;;;;;5004444;28;20462;-70
2022/12/02 12:41:28;;;;;;;61.72;40.80;;;1.30;99.90;;;;;;5012446;28;20049;-69
2022/12/02 12:44:15;;;;;;;57.83;40.17;;;1.10;99.90;;;;;;4999571;28;20426;-69
2022/12/02 12:46:42;;;;;;;58.67;41.97;;;1.10;99.90;;;;;;4987812;28;20029;-69
2022/12/02 12:49:08;;;;;;;60.53;40.88;;;1.20;99.90;;;;;;5001758;28;20085;-69
2022/12/02 12:51:36;;;;;;;60.88;38.80;;;1.10;99.90;;;;;;4996820;28;20136;-68
2022/12/02 12:54:02;;;;;;;62.08;42.35;;;1.10;99.90;;;;;;4994844;28;20061;-69
2022/12/02 12:56:29;;;;;;;60.47;40.42;;;1.10;99.90;;;;;;4994420;28;20053;-69